createdAt,value
2023-01-24T00:01:54.148Z,12.57
2023-01-24T00:03:59.423Z,12.85
2023-01-24T00:08:09.310Z,12.48
2023-01-24T00:12:19.562Z,12.93
2023-01-24T00:14:24.394Z,12.15
2023-01-24T00:16:31.961Z,11.82
2023-01-24T00:18:37.223Z,11.98
2023-01-24T00:22:46.773Z,11.32
2023-01-24T00:24:51.641Z,13.00
2023-01-24T00:26:56.582Z,12.95
2023-01-24T00:29:01.790Z,12.27
2023-01-24T00:33:14.821Z,11.57
2023-01-24T00:35:20.030Z,11.73
2023-01-24T00:37:25.128Z,11.75
2023-01-24T00:39:29.972Z,11.85
2023-01-24T00:41:34.887Z,11.95
2023-01-24T00:43:39.677Z,12.07
2023-01-24T00:45:45.057Z,11.63
2023-01-24T00:47:49.880Z,11.50
2023-01-24T00:49:57.365Z,12.30
2023-01-24T00:52:02.731Z,13.35
2023-01-24T00:54:07.795Z,12.45
2023-01-24T00:56:12.640Z,11.98
2023-01-24T00:58:18.219Z,12.18
2023-01-24T01:02:29.280Z,12.57
2023-01-24T01:04:35.614Z,11.27
2023-01-24T01:06:43.072Z,10.80
2023-01-24T01:08:48.606Z,10.65
2023-01-24T01:10:54.803Z,11.07
2023-01-24T01:13:01.174Z,11.10
2023-01-24T01:15:08.214Z,11.55
2023-01-24T01:17:13.261Z,11.20
2023-01-24T01:19:18.155Z,11.75
2023-01-24T01:21:24.393Z,11.73
2023-01-24T01:23:32.717Z,10.75
2023-01-24T01:25:37.571Z,10.07
2023-01-24T01:27:42.506Z,11.65
2023-01-24T01:29:47.353Z,11.55
2023-01-24T01:31:52.352Z,12.05
2023-01-24T01:33:57.206Z,11.10
2023-01-24T01:36:02.295Z,10.43
2023-01-24T01:38:07.185Z,11.63
2023-01-24T01:40:15.353Z,11.35
2023-01-24T01:42:20.185Z,11.68
2023-01-24T01:44:40.336Z,10.75
2023-01-24T01:46:48.293Z,11.27
2023-01-24T01:48:55.370Z,11.15
2023-01-24T01:51:06.323Z,10.52
2023-01-24T01:53:11.452Z,11.45
2023-01-24T01:55:22.636Z,11.77
2023-01-24T01:57:33.684Z,11.20
2023-01-24T01:59:42.016Z,11.38
2023-01-24T02:01:48.306Z,10.60
2023-01-24T02:04:01.957Z,10.73
2023-01-24T02:06:11.412Z,10.32
2023-01-24T02:08:25.994Z,10.63
2023-01-24T02:10:54.222Z,10.52
2023-01-24T02:12:56.747Z,9.85
2023-01-24T02:15:17.428Z,10.38
2023-01-24T02:17:25.985Z,10.38
2023-01-24T02:20:05.194Z,10.35
2023-01-24T02:22:16.979Z,10.50
2023-01-24T02:24:28.223Z,9.38
2023-01-24T02:26:35.851Z,9.45
2023-01-24T02:28:42.897Z,9.65
2023-01-24T02:30:48.026Z,9.48
2023-01-24T02:34:57.704Z,9.77
2023-01-24T02:37:07.876Z,8.93
2023-01-24T02:39:16.359Z,9.52
2023-01-24T02:41:26.884Z,9.40
2023-01-24T02:43:35.110Z,9.35
2023-01-24T02:45:41.493Z,9.25
2023-01-24T02:47:50.298Z,9.63
2023-01-24T02:49:55.407Z,8.98
2023-01-24T02:52:12.774Z,9.15
2023-01-24T02:54:17.958Z,9.48
2023-01-24T02:56:35.232Z,9.88
2023-01-24T02:58:42.662Z,9.43
2023-01-24T03:00:47.834Z,9.15
2023-01-24T03:02:53.953Z,9.68
2023-01-24T03:04:58.851Z,10.43
2023-01-24T03:07:03.875Z,9.95
2023-01-24T03:09:21.105Z,9.45
2023-01-24T03:11:30.407Z,8.60
2023-01-24T03:13:50.326Z,9.10
2023-01-24T03:16:10.382Z,7.80
2023-01-24T03:18:27.920Z,7.40
2023-01-24T03:20:45.990Z,8.23
2023-01-24T03:23:06.936Z,8.82
2023-01-24T03:25:24.634Z,8.98
2023-01-24T03:27:42.456Z,8.77
2023-01-24T03:30:04.329Z,8.80
2023-01-24T03:32:25.545Z,9.43
2023-01-24T03:34:33.271Z,10.18
2023-01-24T03:36:38.789Z,9.45
2023-01-24T03:38:56.235Z,9.43
2023-01-24T03:41:03.212Z,9.18
2023-01-24T03:43:08.446Z,9.80
2023-01-24T03:45:18.425Z,9.52
2023-01-24T03:47:29.679Z,9.40
2023-01-24T03:49:47.435Z,9.20
2023-01-24T03:52:04.738Z,9.98
2023-01-24T03:54:09.751Z,9.40
2023-01-24T03:58:35.800Z,10.00
2023-01-24T04:00:44.307Z,9.82
2023-01-24T04:03:10.293Z,10.07
2023-01-24T04:05:16.534Z,9.27
2023-01-24T04:07:26.956Z,9.73
2023-01-24T04:09:41.663Z,10.05
2023-01-24T04:11:46.741Z,9.48
2023-01-24T04:13:59.035Z,10.13
2023-01-24T04:16:04.064Z,9.65
2023-01-24T04:18:25.549Z,9.77
2023-01-24T04:20:32.548Z,10.43
2023-01-24T04:22:39.398Z,10.02
2023-01-24T04:24:45.265Z,11.00
2023-01-24T04:26:50.436Z,9.40
2023-01-24T04:29:00.113Z,9.90
2023-01-24T04:31:06.391Z,10.00
2023-01-24T04:33:38.656Z,9.13
2023-01-24T04:35:44.272Z,8.45
2023-01-24T04:37:49.641Z,8.15
2023-01-24T04:40:04.128Z,8.20
2023-01-24T04:42:10.272Z,8.48
2023-01-24T04:44:16.455Z,8.10
2023-01-24T04:46:21.388Z,7.82
2023-01-24T04:48:31.317Z,7.18
2023-01-24T04:52:44.139Z,7.95
2023-01-24T04:56:55.103Z,8.23
2023-01-24T04:59:01.742Z,7.18
2023-01-24T05:01:09.568Z,7.30
2023-01-24T05:03:27.163Z,7.00
2023-01-24T05:05:32.070Z,6.32
2023-01-24T05:07:40.447Z,7.22
2023-01-24T05:09:51.216Z,7.00
2023-01-24T05:11:56.245Z,6.57
2023-01-24T05:14:02.047Z,7.10
2023-01-24T05:16:07.901Z,6.75
2023-01-24T05:18:12.785Z,6.75
2023-01-24T05:20:18.141Z,5.70
2023-01-24T05:22:25.887Z,6.63
2023-01-24T05:24:33.402Z,6.45
2023-01-24T05:26:38.476Z,6.20
2023-01-24T05:28:45.936Z,5.68
2023-01-24T05:30:51.523Z,6.10
2023-01-24T05:33:04.927Z,5.63
2023-01-24T05:35:12.485Z,4.80
2023-01-24T05:37:17.428Z,4.78
2023-01-24T05:39:24.337Z,5.20
2023-01-24T05:41:31.770Z,6.05
2023-01-24T05:43:38.322Z,5.30
2023-01-24T05:45:43.297Z,5.85
2023-01-24T05:47:48.166Z,5.63
2023-01-24T05:49:56.442Z,5.25
2023-01-24T05:52:01.445Z,5.38
2023-01-24T05:54:25.986Z,5.88
2023-01-24T05:56:42.646Z,5.13
2023-01-24T05:58:48.890Z,5.55
2023-01-24T06:00:56.649Z,5.68
2023-01-24T06:03:13.228Z,5.45
2023-01-24T06:05:18.543Z,5.13
2023-01-24T06:07:25.644Z,6.00
2023-01-24T06:09:30.745Z,5.00
2023-01-24T06:11:36.024Z,5.22
2023-01-24T06:13:57.913Z,5.75
2023-01-24T06:16:10.453Z,5.40
2023-01-24T06:18:21.131Z,6.32
2023-01-24T06:20:31.552Z,5.88
2023-01-24T06:22:46.433Z,6.25
2023-01-24T06:24:52.055Z,5.20
2023-01-24T06:27:05.576Z,4.90
2023-01-24T06:29:14.045Z,4.60
2023-01-24T06:31:28.710Z,4.97
2023-01-24T06:33:44.988Z,4.75
2023-01-24T06:36:08.596Z,5.15
2023-01-24T06:38:22.953Z,5.30
2023-01-24T06:40:28.933Z,5.07
2023-01-24T06:42:34.508Z,5.28
2023-01-24T06:44:42.669Z,4.68
2023-01-24T06:46:47.575Z,5.25
2023-01-24T06:48:52.415Z,5.03
2023-01-24T06:50:57.475Z,5.43
2023-01-24T06:55:07.783Z,4.85
2023-01-24T06:57:12.609Z,5.53
2023-01-24T06:59:17.380Z,5.15
2023-01-24T07:01:27.423Z,4.88
2023-01-24T07:03:32.284Z,5.53
2023-01-24T07:05:38.008Z,5.43
2023-01-24T07:07:42.927Z,5.18
2023-01-24T07:09:47.794Z,5.35
2023-01-24T07:11:54.841Z,5.30
2023-01-24T07:13:59.690Z,4.68
2023-01-24T07:16:05.303Z,5.53
2023-01-24T07:18:16.002Z,5.65
2023-01-24T07:20:21.971Z,5.43
2023-01-24T07:22:28.218Z,4.95
2023-01-24T07:24:34.047Z,5.55
2023-01-24T07:26:39.838Z,5.60
2023-01-24T07:28:45.275Z,5.07
2023-01-24T07:30:50.822Z,5.78
2023-01-24T07:32:55.709Z,4.43
2023-01-24T07:35:03.322Z,5.47
2023-01-24T07:37:10.474Z,4.95
2023-01-24T07:39:15.573Z,5.20
2023-01-24T07:41:20.428Z,5.35
2023-01-24T07:43:30.863Z,5.13
2023-01-24T07:45:39.383Z,4.68
2023-01-24T07:47:44.360Z,4.90
2023-01-24T07:49:49.198Z,5.53
2023-01-24T07:51:56.602Z,4.55
2023-01-24T07:54:01.481Z,5.18
2023-01-24T07:56:10.436Z,5.28
2023-01-24T07:58:19.644Z,5.35
2023-01-24T08:00:27.256Z,5.15
2023-01-24T08:02:32.066Z,4.97
2023-01-24T08:04:36.969Z,5.38
2023-01-24T08:07:02.490Z,5.75
2023-01-24T08:09:09.880Z,5.55
2023-01-24T08:11:17.138Z,5.00
2023-01-24T08:13:24.529Z,5.22
2023-01-24T08:15:30.710Z,4.80
2023-01-24T08:17:38.634Z,4.80
2023-01-24T08:19:55.912Z,4.53
2023-01-24T08:22:01.819Z,5.25
2023-01-24T08:24:10.565Z,5.07
2023-01-24T08:26:15.454Z,4.45
2023-01-24T08:28:20.571Z,5.32
2023-01-24T08:30:25.930Z,4.93
2023-01-24T08:32:32.886Z,5.38
2023-01-24T08:34:37.812Z,5.07
2023-01-24T08:36:42.612Z,5.28
2023-01-24T08:38:47.900Z,5.00
2023-01-24T08:40:55.459Z,4.63
2023-01-24T08:43:03.794Z,4.47
2023-01-24T08:45:18.721Z,5.75
2023-01-24T08:47:27.564Z,5.23
2023-01-24T08:49:33.147Z,5.43
2023-01-24T08:51:38.056Z,5.38
2023-01-24T08:53:42.847Z,4.85
2023-01-24T08:55:47.804Z,5.20
2023-01-24T08:57:55.328Z,5.25
2023-01-24T09:00:00.391Z,5.90
2023-01-24T09:02:05.445Z,4.57
2023-01-24T09:04:10.369Z,5.25
2023-01-24T09:06:15.652Z,5.32
2023-01-24T09:08:20.548Z,5.35
2023-01-24T09:10:30.249Z,5.18
2023-01-24T09:12:35.507Z,5.45
2023-01-24T09:16:47.649Z,4.97
2023-01-24T09:18:53.207Z,4.95
2023-01-24T09:20:58.140Z,5.03
2023-01-24T09:23:02.947Z,5.13
2023-01-24T09:25:09.223Z,5.07
2023-01-24T09:27:14.407Z,5.20
2023-01-24T09:29:19.281Z,5.50
2023-01-24T09:31:26.860Z,5.05
2023-01-24T09:33:32.209Z,5.45
2023-01-24T09:37:43.665Z,4.65
2023-01-24T09:39:48.539Z,5.40
2023-01-24T09:42:11.170Z,4.88
2023-01-24T09:44:24.047Z,4.88
2023-01-24T09:46:36.499Z,5.78
2023-01-24T09:48:42.178Z,6.38
2023-01-24T09:50:50.874Z,5.20
2023-01-24T09:52:58.509Z,5.80
2023-01-24T09:55:09.560Z,5.50
2023-01-24T09:57:22.405Z,5.60
2023-01-24T09:59:36.827Z,6.70
2023-01-24T10:01:44.503Z,6.40
2023-01-24T10:03:49.368Z,6.43
2023-01-24T10:05:56.566Z,6.25
2023-01-24T10:08:28.683Z,7.03
2023-01-24T10:10:50.559Z,5.47
2023-01-24T10:13:04.987Z,5.72
2023-01-24T10:15:22.595Z,5.15
2023-01-24T10:17:53.263Z,5.85
2023-01-24T10:20:16.038Z,5.03
2023-01-24T10:22:34.975Z,5.03
2023-01-24T10:24:43.393Z,5.70
2023-01-24T10:26:52.972Z,5.63
2023-01-24T10:29:03.390Z,5.90
2023-01-24T10:31:18.087Z,5.55
2023-01-24T10:33:30.175Z,6.10
2023-01-24T10:35:43.371Z,6.00
2023-01-24T10:37:56.887Z,5.43
2023-01-24T10:40:02.782Z,5.65
2023-01-24T10:42:20.278Z,5.90
2023-01-24T10:44:29.802Z,5.95
2023-01-24T10:47:12.997Z,6.13
2023-01-24T10:49:26.359Z,5.78
2023-01-24T10:51:31.235Z,4.93
2023-01-24T10:53:36.219Z,5.90
2023-01-24T10:55:40.994Z,5.35
2023-01-24T10:57:47.731Z,6.10
2023-01-24T10:59:52.959Z,5.57
2023-01-24T11:02:03.208Z,6.22
2023-01-24T11:04:19.743Z,5.53
2023-01-24T11:06:36.152Z,5.93
2023-01-24T11:08:41.355Z,5.22
2023-01-24T11:12:55.208Z,5.65
2023-01-24T11:15:01.125Z,5.35
2023-01-24T11:17:09.316Z,5.15
2023-01-24T11:19:26.882Z,6.90
2023-01-24T11:21:35.977Z,6.57
2023-01-24T11:23:41.128Z,6.38
2023-01-24T11:25:56.400Z,6.43
2023-01-24T11:28:01.751Z,6.57
2023-01-24T11:30:18.129Z,5.65
2023-01-24T11:32:35.084Z,6.03
2023-01-24T11:34:54.667Z,5.93
2023-01-24T11:37:13.267Z,6.47
2023-01-24T11:39:26.922Z,6.80
2023-01-24T11:41:38.746Z,6.63
2023-01-24T11:44:15.909Z,7.75
2023-01-24T11:46:32.264Z,7.35
2023-01-24T11:48:49.445Z,6.07
2023-01-24T11:51:13.490Z,6.78
2023-01-24T11:53:48.200Z,5.78
2023-01-24T11:56:04.591Z,7.25
2023-01-24T11:58:35.742Z,6.50
2023-01-24T12:00:51.591Z,6.85
2023-01-24T12:03:24.454Z,6.18
2023-01-24T12:05:39.947Z,5.82
2023-01-24T12:07:54.256Z,6.22
2023-01-24T12:10:10.142Z,6.70
2023-01-24T12:14:53.554Z,6.65
2023-01-24T12:17:18.615Z,6.57
2023-01-24T12:20:00.613Z,7.68
2023-01-24T12:22:14.168Z,6.75
2023-01-24T12:24:25.530Z,7.03
2023-01-24T12:26:36.104Z,6.03
2023-01-24T12:28:46.973Z,6.80
2023-01-24T12:30:55.815Z,6.38
2023-01-24T12:33:06.570Z,6.60
2023-01-24T12:35:24.179Z,6.75
2023-01-24T12:37:35.260Z,7.07
2023-01-24T12:39:50.657Z,6.90
2023-01-24T12:42:05.038Z,7.72
2023-01-24T12:44:26.842Z,8.30
2023-01-24T12:46:37.472Z,7.60
2023-01-24T12:48:50.055Z,8.00
2023-01-24T12:51:01.676Z,6.97
2023-01-24T12:53:16.503Z,6.82
2023-01-24T12:55:26.879Z,8.00
2023-01-24T12:57:41.749Z,7.82
2023-01-24T12:59:46.544Z,7.80
2023-01-24T13:02:33.047Z,8.27
2023-01-24T13:04:49.831Z,7.95
2023-01-24T13:07:08.244Z,8.23
2023-01-24T13:09:23.507Z,8.77
2023-01-24T13:11:30.378Z,8.02
2023-01-24T13:13:43.145Z,8.52
2023-01-24T13:16:02.382Z,8.82
2023-01-24T13:18:19.084Z,8.00
2023-01-24T13:20:48.516Z,7.72
2023-01-24T13:23:22.856Z,8.23
2023-01-24T13:26:03.576Z,7.88
2023-01-24T13:28:17.805Z,9.55
2023-01-24T13:30:42.324Z,8.90
2023-01-24T13:32:49.401Z,8.35
2023-01-24T13:34:57.305Z,9.07
2023-01-24T13:37:03.380Z,9.40
2023-01-24T13:39:09.353Z,8.65
2023-01-24T13:41:19.287Z,9.23
2023-01-24T13:43:57.196Z,8.70
2023-01-24T13:46:04.760Z,8.60
2023-01-24T13:48:47.962Z,8.50
2023-01-24T13:51:39.545Z,9.07
2023-01-24T13:54:03.147Z,8.70
2023-01-24T13:56:08.447Z,8.30
2023-01-24T14:00:31.215Z,8.63
2023-01-24T14:02:44.125Z,9.65
2023-01-24T14:04:49.130Z,8.55
2023-01-24T14:06:55.685Z,9.20
2023-01-24T14:09:16.946Z,9.20
2023-01-24T14:11:36.740Z,8.52
2023-01-24T14:13:57.518Z,8.80
2023-01-24T14:16:02.338Z,7.50
2023-01-24T14:18:50.586Z,7.95
2023-01-24T14:20:55.733Z,8.90
2023-01-24T14:23:04.243Z,7.03
2023-01-24T14:25:31.480Z,10.70
2023-01-24T14:27:40.372Z,8.20
2023-01-24T14:29:48.771Z,17.70
2023-01-24T14:31:56.561Z,14.18
2023-01-24T14:34:10.867Z,9.07
2023-01-24T14:36:25.222Z,9.50
2023-01-24T14:38:30.090Z,8.85
2023-01-24T14:40:35.012Z,8.18
2023-01-24T14:42:39.923Z,8.73
2023-01-24T14:44:53.726Z,8.85
2023-01-24T14:47:00.789Z,8.02
2023-01-24T14:49:18.686Z,9.63
2023-01-24T14:51:26.829Z,9.00
2023-01-24T14:53:33.704Z,8.10
2023-01-24T14:55:43.498Z,8.25
2023-01-24T14:57:48.753Z,8.68
2023-01-24T15:00:09.523Z,9.30
2023-01-24T15:02:20.212Z,9.27
2023-01-24T15:04:30.999Z,8.20
2023-01-24T15:06:36.530Z,8.90
2023-01-24T15:08:42.136Z,8.77
2023-01-24T15:10:47.371Z,8.63
2023-01-24T15:15:02.999Z,8.52
2023-01-24T15:17:08.013Z,8.27
2023-01-24T15:19:25.108Z,9.07
2023-01-24T15:21:37.227Z,7.70
2023-01-24T15:23:42.756Z,8.30
2023-01-24T15:25:47.780Z,8.32
2023-01-24T15:27:52.637Z,8.32
2023-01-24T15:30:11.771Z,9.70
2023-01-24T15:32:31.314Z,8.80
2023-01-24T15:34:36.222Z,10.35
2023-01-24T15:36:43.640Z,7.65
2023-01-24T15:38:54.158Z,8.48
2023-01-24T15:41:21.067Z,8.73
2023-01-24T15:43:43.151Z,9.95
2023-01-24T15:46:13.210Z,9.55
2023-01-24T15:48:20.436Z,8.43
2023-01-24T15:50:39.628Z,8.85
2023-01-24T15:52:47.201Z,9.15
2023-01-24T15:54:58.611Z,8.50
2023-01-24T15:57:07.585Z,8.95
2023-01-24T15:59:19.406Z,9.43
2023-01-24T16:01:24.849Z,8.25
2023-01-24T16:03:30.340Z,9.05
2023-01-24T16:05:35.236Z,9.35
2023-01-24T16:07:40.012Z,9.57
2023-01-24T16:09:49.460Z,9.23
2023-01-24T16:11:54.340Z,9.02
2023-01-24T16:13:59.283Z,9.65
2023-01-24T16:16:07.744Z,9.32
2023-01-24T16:18:13.731Z,9.52
2023-01-24T16:20:23.400Z,8.77
2023-01-24T16:22:29.620Z,10.00
2023-01-24T16:24:34.421Z,10.85
2023-01-24T16:26:43.861Z,10.65
2023-01-24T16:28:48.806Z,7.97
2023-01-24T16:30:54.682Z,9.45
2023-01-24T16:32:59.736Z,9.82
2023-01-24T16:35:04.508Z,10.30
2023-01-24T16:37:12.025Z,9.60
2023-01-24T16:39:21.136Z,9.88
2023-01-24T16:41:25.948Z,10.48
2023-01-24T16:43:33.682Z,9.50
2023-01-24T16:45:38.810Z,9.63
2023-01-24T16:47:43.599Z,11.25
2023-01-24T16:49:48.527Z,12.05
2023-01-24T16:51:53.296Z,11.35
2023-01-24T16:53:58.621Z,8.77
2023-01-24T16:56:03.469Z,8.73
2023-01-24T16:58:08.380Z,10.80
2023-01-24T17:00:17.321Z,12.95
2023-01-24T17:02:22.314Z,9.65
2023-01-24T17:04:27.160Z,12.10
2023-01-24T17:06:32.114Z,13.05
2023-01-24T17:08:37.187Z,12.30
2023-01-24T17:12:46.707Z,10.30
2023-01-24T17:14:51.605Z,10.20
2023-01-24T17:16:59.014Z,10.60
2023-01-24T17:19:05.109Z,11.18
2023-01-24T17:21:12.307Z,10.55
2023-01-24T17:23:17.480Z,10.52
2023-01-24T17:25:22.356Z,10.85
2023-01-24T17:27:27.319Z,11.98
2023-01-24T17:29:32.484Z,13.68
2023-01-24T17:31:39.292Z,13.45
2023-01-24T17:33:47.302Z,9.57
2023-01-24T17:35:52.316Z,9.90
2023-01-24T17:37:57.116Z,10.55
2023-01-24T17:40:02.347Z,9.65
2023-01-24T17:42:07.376Z,10.70
2023-01-24T17:44:12.915Z,9.65
2023-01-24T17:46:18.182Z,10.20
2023-01-24T17:48:23.530Z,9.75
2023-01-24T17:50:31.270Z,11.45
2023-01-24T17:52:36.172Z,11.32
2023-01-24T17:54:41.008Z,11.40
2023-01-24T17:56:46.141Z,10.68
2023-01-24T17:58:50.933Z,10.82
2023-01-24T18:00:57.349Z,11.38
2023-01-24T18:03:02.297Z,11.23
2023-01-24T18:05:08.129Z,10.57
2023-01-24T18:07:18.984Z,10.48
2023-01-24T18:09:26.961Z,9.60
2023-01-24T18:11:31.972Z,10.50
2023-01-24T18:13:36.818Z,9.90
2023-01-24T18:15:41.720Z,10.23
2023-01-24T18:17:46.550Z,10.77
2023-01-24T18:19:52.773Z,9.98
2023-01-24T18:21:58.209Z,10.35
2023-01-24T18:24:09.171Z,10.65
2023-01-24T18:26:14.085Z,10.30
2023-01-24T18:28:18.882Z,10.25
2023-01-24T18:30:23.901Z,10.82
2023-01-24T18:32:28.724Z,9.32
2023-01-24T18:34:33.663Z,10.57
2023-01-24T18:36:38.611Z,11.43
2023-01-24T18:38:45.704Z,10.77
2023-01-24T18:40:55.583Z,10.23
2023-01-24T18:43:00.433Z,10.55
2023-01-24T18:45:07.470Z,9.82
2023-01-24T18:47:14.433Z,11.40
2023-01-24T18:49:20.669Z,9.93
2023-01-24T18:51:25.991Z,11.18
2023-01-24T18:53:30.832Z,10.30
2023-01-24T18:55:35.644Z,10.80
2023-01-24T18:57:43.253Z,10.60
2023-01-24T18:59:48.137Z,11.63
2023-01-24T19:01:54.369Z,10.52
2023-01-24T19:03:59.746Z,10.77
2023-01-24T19:06:04.688Z,11.35
2023-01-24T19:08:09.607Z,10.90
2023-01-24T19:10:19.732Z,10.73
2023-01-24T19:12:25.833Z,11.07
2023-01-24T19:14:33.268Z,11.98
2023-01-24T19:16:40.817Z,11.27
2023-01-24T19:18:49.069Z,11.15
2023-01-24T19:20:54.246Z,11.50
2023-01-24T19:25:03.774Z,10.73
2023-01-24T19:27:08.600Z,10.35
2023-01-24T19:29:15.772Z,11.13
2023-01-24T19:31:23.572Z,15.77
2023-01-24T19:33:28.604Z,12.27
2023-01-24T19:35:33.598Z,11.98
2023-01-24T19:37:38.484Z,12.25
2023-01-24T19:39:43.280Z,11.48
2023-01-24T19:41:48.109Z,11.80
2023-01-24T19:44:18.576Z,11.25
2023-01-24T19:46:18.168Z,11.70
2023-01-24T19:50:30.501Z,11.75
2023-01-24T19:52:35.441Z,10.95
2023-01-24T19:54:40.407Z,12.65
2023-01-24T19:56:45.354Z,14.40
2023-01-24T19:58:50.198Z,12.75
2023-01-24T20:00:55.146Z,12.52
2023-01-24T20:03:00.214Z,12.10
2023-01-24T20:05:08.684Z,11.90
2023-01-24T20:07:14.449Z,12.15
2023-01-24T20:09:19.501Z,11.35
2023-01-24T20:11:25.823Z,11.82
2023-01-24T20:13:31.396Z,11.18
2023-01-24T20:15:36.804Z,11.05
2023-01-24T20:17:41.653Z,10.32
2023-01-24T20:19:59.262Z,11.77
2023-01-24T20:22:09.494Z,11.43
2023-01-24T20:24:15.006Z,11.80
2023-01-24T20:26:19.904Z,12.10
2023-01-24T20:28:24.833Z,11.60
2023-01-24T20:30:29.648Z,12.23
2023-01-24T20:32:35.833Z,11.90
2023-01-24T20:34:45.887Z,11.90
2023-01-24T20:36:51.036Z,12.70
2023-01-24T20:38:58.835Z,12.65
2023-01-24T20:41:05.808Z,13.35
2023-01-24T20:43:10.754Z,13.88
2023-01-24T20:45:15.720Z,12.93
2023-01-24T20:47:20.911Z,11.80
2023-01-24T20:51:31.687Z,12.88
2023-01-24T20:53:37.662Z,13.07
2023-01-24T20:55:46.913Z,13.23
2023-01-24T20:57:51.814Z,12.60
2023-01-24T20:59:56.624Z,13.57
2023-01-24T21:02:01.551Z,12.02
2023-01-24T21:04:09.372Z,13.63
2023-01-24T21:06:17.206Z,13.13
2023-01-24T21:08:22.024Z,13.38
2023-01-24T21:10:26.946Z,12.73
2023-01-24T21:12:34.951Z,12.77
2023-01-24T21:14:39.819Z,13.13
2023-01-24T21:16:45.323Z,13.40
2023-01-24T21:18:53.137Z,13.55
2023-01-24T21:20:59.938Z,13.43
2023-01-24T21:23:05.039Z,14.00
2023-01-24T21:25:11.012Z,13.60
2023-01-24T21:27:15.941Z,14.32
2023-01-24T21:29:23.503Z,14.30
2023-01-24T21:31:29.795Z,12.95
2023-01-24T21:33:35.058Z,13.88
2023-01-24T21:37:44.605Z,13.70
2023-01-24T21:39:49.443Z,13.20
2023-01-24T21:41:59.526Z,13.38
2023-01-24T21:44:05.239Z,13.52
2023-01-24T21:46:12.727Z,13.82
2023-01-24T21:48:37.699Z,13.80
2023-01-24T21:50:42.545Z,14.07
2023-01-24T21:52:47.372Z,13.70
2023-01-24T21:54:54.106Z,14.70
2023-01-24T21:57:28.424Z,13.52
2023-01-24T21:59:36.269Z,14.57
2023-01-24T22:01:43.931Z,14.35
2023-01-24T22:03:48.771Z,15.13
2023-01-24T22:05:54.740Z,14.65
2023-01-24T22:08:00.090Z,14.38
2023-01-24T22:10:06.385Z,14.35
2023-01-24T22:12:12.386Z,14.30
2023-01-24T22:14:20.194Z,14.70
2023-01-24T22:16:25.705Z,15.57
2023-01-24T22:18:34.079Z,14.30
2023-01-24T22:20:39.671Z,14.45
2023-01-24T22:23:01.004Z,15.10
2023-01-24T22:25:21.184Z,14.73
2023-01-24T22:27:26.530Z,14.73
2023-01-24T22:29:32.169Z,14.52
2023-01-24T22:31:38.378Z,15.55
2023-01-24T22:33:46.655Z,15.20
2023-01-24T22:35:56.016Z,15.85
2023-01-24T22:38:03.072Z,15.15
2023-01-24T22:40:09.577Z,15.60
2023-01-24T22:42:14.567Z,15.45
2023-01-24T22:44:19.388Z,17.40
2023-01-24T22:46:24.299Z,17.77
2023-01-24T22:48:29.257Z,15.60
2023-01-24T22:52:41.576Z,17.58
2023-01-24T22:54:46.482Z,17.88
2023-01-24T22:56:51.679Z,16.92
2023-01-24T23:01:09.640Z,17.90
2023-01-24T23:03:14.578Z,17.13
2023-01-24T23:05:19.635Z,16.33
2023-01-24T23:07:27.171Z,15.82
2023-01-24T23:09:32.040Z,16.63
2023-01-24T23:11:36.871Z,17.65
2023-01-24T23:13:54.505Z,16.85
2023-01-24T23:16:12.101Z,16.60
2023-01-24T23:18:41.221Z,16.98
2023-01-24T23:20:58.623Z,16.13
2023-01-24T23:23:06.405Z,15.93
2023-01-24T23:25:11.558Z,15.38
2023-01-24T23:27:17.336Z,15.48
2023-01-24T23:29:40.970Z,16.58
2023-01-24T23:31:45.855Z,15.52
2023-01-24T23:33:50.902Z,15.30
2023-01-24T23:35:55.786Z,15.25
2023-01-24T23:38:00.716Z,15.30
2023-01-24T23:40:09.839Z,16.30
2023-01-24T23:42:14.744Z,14.93
2023-01-24T23:44:19.837Z,13.98
2023-01-24T23:46:24.668Z,15.43
2023-01-24T23:48:29.759Z,16.08
2023-01-24T23:50:34.731Z,15.05
2023-01-24T23:52:39.671Z,16.70
2023-01-24T23:54:44.748Z,15.77
2023-01-24T23:56:52.256Z,13.95
2023-01-24T23:58:57.086Z,14.07
